Mudcat — WCY8255 — position and weather

sailwx.info

Track history (hours):
 
Tides and Currents Weather Stations Pressure Air Temp Water Temp Dewpoint Dewpoint Depression Visibility Wind Speed Wind Dir Waves Ship Positions

Mudcat

Owner: TAURUS MARINE, SAN FRANCISCO, CA. More information available from US FCC via Universal Licensing System and Coast Guard Vessel Documentation Center.

Last reported at 2015-May-03 19:35 UTC. Time now 2015-May-24 09:17 UTC.
Position N 47°39' W 122°20'.
Warning: this ship's position is 20 days out of date.

Length 22 m; draft 2 m.

Type: Tug. MMSI: 366969750.

Date/timePositionNaut miles runAvg speedWind from/ knotsBaromVisibWave heightAir tempDewpointWater temp
2015-May-03 19:35N 47°39' W 122°20'0 1.3
2015-May-03 19:33N 47°39' W 122°20'0 0.7
2015-May-03 19:30N 47°39' W 122°20'4 3.0
2015-May-03 18:18N 47°39' W 122°15'0 0.8
2015-May-03 17:59N 47°39' W 122°15'3 4.0
2015-May-03 17:19N 47°39' W 122°19'0 3.7
2015-May-03 17:11N 47°39' W 122°20'2 3.7
2015-May-03 16:33N 47°40' W 122°23'0 3.3
2015-May-03 16:24N 47°40' W 122°24'0 0.5
2015-May-03 15:33N 47°40' W 122°24'0 0.0
2015-May-03 15:29N 47°40' W 122°24'0 0.5
2015-May-03 14:33N 47°40' W 122°24'0 1.7
2015-May-03 14:29N 47°40' W 122°23'2 2.5
2015-May-03 13:34N 47°39' W 122°20'0 0.0
2015-May-03 13:33N 47°39' W 122°20'  
2015-Apr-28 18:29N 47°39' W 122°20'  
Track history (hours):
 
Tides and Currents Weather Stations Pressure Air Temp Water Temp Dewpoint Dewpoint Depression Visibility Wind Speed Wind Dir Waves Ship Positions

Mudcat

Owner: TAURUS MARINE, SAN FRANCISCO, CA. More information available from US FCC via Universal Licensing System and Coast Guard Vessel Documentation Center.

Last reported at 2015-May-03 19:35 UTC. Time now 2015-May-24 09:17 UTC.
Position N 47°39' W 122°20'.
Warning: this ship's position is 20 days out of date.

Length 22 m; draft 2 m.

Type: Tug. MMSI: 366969750.

Date/timePositionNaut miles runAvg speedWind from/ knotsBaromVisibWave heightAir tempDewpointWater temp
2015-May-03 19:35N 47°39' W 122°20'0 1.3
2015-May-03 19:33N 47°39' W 122°20'0 0.7
2015-May-03 19:30N 47°39' W 122°20'4 3.0
2015-May-03 18:18N 47°39' W 122°15'0 0.8
2015-May-03 17:59N 47°39' W 122°15'3 4.0
2015-May-03 17:19N 47°39' W 122°19'0 3.7
2015-May-03 17:11N 47°39' W 122°20'2 3.7
2015-May-03 16:33N 47°40' W 122°23'0 3.3
2015-May-03 16:24N 47°40' W 122°24'0 0.5
2015-May-03 15:33N 47°40' W 122°24'0 0.0
2015-May-03 15:29N 47°40' W 122°24'0 0.5
2015-May-03 14:33N 47°40' W 122°24'0 1.7
2015-May-03 14:29N 47°40' W 122°23'2 2.5
2015-May-03 13:34N 47°39' W 122°20'0 0.0
2015-May-03 13:33N 47°39' W 122°20'  
2015-Apr-28 18:29N 47°39' W 122°20'  

Dump ship's entire track history